Pacific Princess — ZCDS3 — position and weather

sailwx.info

Track history (hours):
 
Tides and Currents Weather Stations Pressure Air Temp Water Temp Dewpoint Dewpoint Depression Visibility Wind Speed Wind Dir Waves Ship Positions

Pacific Princess (Bermuda)

Last reported at 2017-Nov-20 13:00 UTC. Time now 2017-Nov-20 18:53 UTC.
Position N 38°24' E 019°48'.

Length 180.5 m; beam 25.6 m; draft 6 m.

Type: Passenger vessel. MMSI: 310504000.

Wind from 310 at 34 knots

Barometer 1014.6 mb
Air temperature 15.5 ° C
Visibility: greater than 10.8 NM
Dewpoint 2.0 ° C
Water temperature 21.0 ° C

Date/timePositionNaut miles runAvg speedWind from/ knotsBaromVisibWave heightAir tempDewpointWater temp
2017-Nov-20 13:00N 38°24' E 019°48'11416.3 310 / 341014.610.8 15.5 2.021.0
2017-Nov-20 06:00N 36°48' E 021°06'6513.0 280 / 261011.410.8 18.0 9.521.0
2017-Nov-20 01:00N 36°18' E 022°18'13316.5 260 / 171011.810.8 16.012.417.0
2017-Nov-19 16:55N 37°12' E 024°50'716.8
2017-Nov-19 16:30N 37°15' E 024°57'816.4
2017-Nov-19 16:00N 37°20' E 025°05'916.9
2017-Nov-19 15:30N 37°28' E 025°11'713.3
2017-Nov-19 15:00N 37°28' E 025°19'0 0.2
2017-Nov-19 14:25N 37°28' E 025°19'0 0.0
2017-Nov-19 13:58N 37°28' E 025°19'0 0.0
2017-Nov-19 13:28N 37°28' E 025°19'0 0.0
2017-Nov-19 12:58N 37°28' E 025°19'0 0.0
2017-Nov-19 12:28N 37°28' E 025°19'0 0.0
2017-Nov-19 11:58N 37°28' E 025°19'0 0.0
2017-Nov-19 11:28N 37°28' E 025°19'0 0.0
2017-Nov-19 10:58N 37°28' E 025°19'0 0.0
2017-Nov-19 10:28N 37°28' E 025°19'0 0.0
2017-Nov-19 09:58N 37°28' E 025°19'0 0.0
2017-Nov-19 09:25N 37°28' E 025°19'0 0.0
2017-Nov-19 08:58N 37°28' E 025°19'0 0.0
2017-Nov-19 08:28N 37°28' E 025°19'0 0.0
2017-Nov-19 07:58N 37°28' E 025°19'0 0.0
2017-Nov-19 07:28N 37°28' E 025°19'0 0.0
2017-Nov-19 06:58N 37°28' E 025°19'0 0.0
2017-Nov-19 06:28N 37°28' E 025°19'0 0.0
2017-Nov-19 05:52N 37°28' E 025°19'0 0.0
2017-Nov-19 05:25N 37°28' E 025°19'0 0.0
2017-Nov-19 04:58N 37°28' E 025°19'0 0.5
2017-Nov-19 04:30N 37°28' E 025°19'4 8.0
2017-Nov-19 04:00N 37°28' E 025°14'611.1
2017-Nov-19 03:30N 37°30' E 025°08'510.6
2017-Nov-19 03:00N 37°32' E 025°02'10 9.8
2017-Nov-19 02:01N 37°32' E 024°49'011.1
2017-Nov-19 02:00N 37°32' E 024°49'510.5
2017-Nov-19 01:30N 37°29' E 024°44'816.0
2017-Nov-19 01:00N 37°24' E 024°36'44 6.2 290 / 71010.910.8 16.812.721.0
2017-Nov-18 18:00N 37°37' E 023°43'510.2
2017-Nov-18 17:30N 37°42' E 023°42'510.4
2017-Nov-18 17:00N 37°46' E 023°38'510.1
2017-Nov-18 16:30N 37°51' E 023°36'510.0
2017-Nov-18 16:01N 37°56' E 023°37'1 2.7
2017-Nov-18 15:30N 37°56' E 023°38'0 0.0
2017-Nov-18 15:00N 37°56' E 023°38'0 0.0
2017-Nov-18 14:30N 37°56' E 023°38'0 0.0
2017-Nov-18 14:00N 37°56' E 023°38'0 0.0
2017-Nov-18 13:30N 37°56' E 023°38'0 0.0
2017-Nov-18 12:57N 37°56' E 023°38'0 0.0
2017-Nov-18 12:27N 37°56' E 023°38'0 0.0
2017-Nov-18 12:00N 37°56' E 023°38'0 0.0
2017-Nov-18 11:30N 37°56' E 023°38'0 0.0
2017-Nov-18 11:00N 37°56' E 023°38'0 0.0
2017-Nov-18 10:30N 37°56' E 023°38'0 0.0
2017-Nov-18 10:00N 37°56' E 023°38'0 0.0
2017-Nov-18 09:24N 37°56' E 023°38'0 0.0
2017-Nov-18 09:00N 37°56' E 023°38'0 0.0
2017-Nov-18 08:27N 37°56' E 023°38'0 0.0
2017-Nov-18 08:00N 37°56' E 023°38'0 0.0
2017-Nov-18 07:30N 37°56' E 023°38'0 0.0
2017-Nov-18 07:00N 37°56' E 023°38'0 0.0
2017-Nov-18 06:30N 37°56' E 023°38'0 0.0
2017-Nov-18 06:00N 37°56' E 023°38'0 0.0
2017-Nov-18 05:30N 37°56' E 023°38'0 0.0
2017-Nov-18 05:00N 37°56' E 023°38'1 2.4
2017-Nov-18 04:30N 37°56' E 023°37'3 6.0
2017-Nov-18 04:00N 37°53' E 023°38'612.1
2017-Nov-18 03:31N 37°48' E 023°41'12513.1
2017-Nov-17 18:00N 38°48' E 026°00'166 4.1 050 / 211014.8 5.4 16.012.420.0
2017-Nov-16 01:00N 36°12' E 027°12'145 6.1 120 / 141018.710.8 19.016.520.0
2017-Nov-15 01:00N 36°18' E 024°12'5819.3 110 / 161015.310.8 18.018.022.0
2017-Nov-14 22:00N 36°18' E 023°00'19811.6 170 / 251013.410.8 20.015.822.0
2017-Nov-14 05:00N 38°24' E 019°48'5212.9 100 / 251006.910.8 17.013.520.0
2017-Nov-14 01:00N 39°12' E 019°24'3912.9 190 / 171004.3 5.4 17.013.518.0
2017-Nov-13 22:00N 39°48' E 019°06'7312.1 150 / 321003.8 5.4 18.016.320.0
2017-Nov-13 16:00N 41°00' E 018°54'19 9.3 150 / 34999.5 5.4 17.012.519.0
2017-Nov-13 14:00N 41°18' E 018°48'77 6.4 150 / 31999.310.8 18.213.318.0
2017-Nov-13 02:00N 42°24' E 017°54'93 6.2 170 / 331000.810.8 18.0
2017-Nov-12 11:00N 43°30' E 016°24'53 5.8 110 / 161011.110.8 16.012.417.0
2017-Nov-12 02:00N 43°36' E 015°12'7017.6 140 / 131011.810.8 16.011.416.0
2017-Nov-11 22:00N 44°12' E 013°48'929.6 180 / 141011.410.8 16.010.318.0
2017-Nov-11 21:41N 44°21' E 013°48'317.6
2017-Nov-11 21:30N 44°24' E 013°46'917.8
2017-Nov-11 21:00N 44°31' E 013°38'917.7
2017-Nov-11 20:30N 44°38' E 013°32'917.6
2017-Nov-11 20:00N 44°46' E 013°26'917.8
2017-Nov-11 19:30N 44°53' E 013°19'917.7
2017-Nov-11 19:00N 45°00' E 013°11'917.7
2017-Nov-11 18:30N 45°07' E 013°04'917.6
2017-Nov-11 18:00N 45°16' E 013°01'815.4
2017-Nov-11 17:30N 45°21' E 012°52'917.6
2017-Nov-11 17:00N 45°22' E 012°40'815.4
2017-Nov-11 16:30N 45°24' E 012°29'5 9.7
2017-Nov-11 16:00N 45°26' E 012°23'3 5.5
2017-Nov-11 15:30N 45°26' E 012°19'0 0.9
2017-Nov-11 14:59N 45°26' E 012°19'0 0.0
2017-Nov-11 14:29N 45°26' E 012°19'0 0.0
2017-Nov-11 13:59N 45°26' E 012°19'0 0.0
2017-Nov-11 13:29N 45°26' E 012°19'0 0.0
2017-Nov-11 12:59N 45°26' E 012°19'0 0.0
2017-Nov-11 12:29N 45°26' E 012°19'0 0.0
2017-Nov-11 11:59N 45°26' E 012°19'0 0.0
2017-Nov-11 11:29N 45°26' E 012°19'0 0.0
2017-Nov-11 10:58N 45°26' E 012°19'0 0.0
2017-Nov-11 10:28N 45°26' E 012°19'0 0.0
2017-Nov-11 09:58N 45°26' E 012°19'0 0.0
2017-Nov-11 09:28N 45°26' E 012°19'0 0.0
2017-Nov-11 08:58N 45°26' E 012°19'0 0.0
2017-Nov-11 08:28N 45°26' E 012°19'0 0.0
2017-Nov-11 07:58N 45°26' E 012°19'0 0.0
2017-Nov-11 07:28N 45°26' E 012°19'0 0.0
2017-Nov-11 06:55N 45°26' E 012°19'0 0.0
2017-Nov-11 06:28N 45°26' E 012°19'0 0.0
2017-Nov-11 05:58N 45°26' E 012°19'0 0.0
2017-Nov-11 05:28N 45°26' E 012°19'0 0.0
2017-Nov-11 04:58N 45°26' E 012°19'0 0.3
2017-Nov-11 04:30N 45°26' E 012°19'2 3.5
2017-Nov-11 04:00N 45°26' E 012°21'3 6.7
2017-Nov-11 03:30N 45°25' E 012°26'510.2
2017-Nov-11 03:00N 45°22' E 012°32'611.9
2017-Nov-11 02:31N 45°16' E 012°33'714.6
2017-Nov-11 02:01N 45°12' E 012°41'815.0
2017-Nov-11 01:30N 45°08' E 012°50'815.3
2017-Nov-11 01:01N 45°00' E 012°53'816.6
2017-Nov-11 00:31N 44°56' E 013°03'917.1
2017-Nov-11 00:00N 44°56' E 013°15'816.5
2017-Nov-10 23:30N 44°53' E 013°26'917.5
2017-Nov-10 23:00N 44°46' E 013°34'917.4
2017-Nov-10 22:31N 44°40' E 013°42'917.2
2017-Nov-10 22:01N 44°39' E 013°54'815.4
2017-Nov-10 21:31N 44°43' E 014°03'1417.8
2017-Nov-10 20:43N 44°56' E 014°11'1615.8
2017-Nov-10 19:40N 45°12' E 014°18'714.6
2017-Nov-10 19:10N 45°18' E 014°23'  
Track history (hours):
 
Tides and Currents Weather Stations Pressure Air Temp Water Temp Dewpoint Dewpoint Depression Visibility Wind Speed Wind Dir Waves Ship Positions

Pacific Princess (Bermuda)

Last reported at 2017-Nov-20 13:00 UTC. Time now 2017-Nov-20 18:53 UTC.
Position N 38°24' E 019°48'.

Length 180.5 m; beam 25.6 m; draft 6 m.

Type: Passenger vessel. MMSI: 310504000.

Wind from 310 at 34 knots

Barometer 1014.6 mb
Air temperature 15.5 ° C
Visibility: greater than 10.8 NM
Dewpoint 2.0 ° C
Water temperature 21.0 ° C

Date/timePositionNaut miles runAvg speedWind from/ knotsBaromVisibWave heightAir tempDewpointWater temp
2017-Nov-20 13:00N 38°24' E 019°48'11416.3 310 / 341014.610.8 15.5 2.021.0
2017-Nov-20 06:00N 36°48' E 021°06'6513.0 280 / 261011.410.8 18.0 9.521.0
2017-Nov-20 01:00N 36°18' E 022°18'13316.5 260 / 171011.810.8 16.012.417.0
2017-Nov-19 16:55N 37°12' E 024°50'716.8
2017-Nov-19 16:30N 37°15' E 024°57'816.4
2017-Nov-19 16:00N 37°20' E 025°05'916.9
2017-Nov-19 15:30N 37°28' E 025°11'713.3
2017-Nov-19 15:00N 37°28' E 025°19'0 0.2
2017-Nov-19 14:25N 37°28' E 025°19'0 0.0
2017-Nov-19 13:58N 37°28' E 025°19'0 0.0
2017-Nov-19 13:28N 37°28' E 025°19'0 0.0
2017-Nov-19 12:58N 37°28' E 025°19'0 0.0
2017-Nov-19 12:28N 37°28' E 025°19'0 0.0
2017-Nov-19 11:58N 37°28' E 025°19'0 0.0
2017-Nov-19 11:28N 37°28' E 025°19'0 0.0
2017-Nov-19 10:58N 37°28' E 025°19'0 0.0
2017-Nov-19 10:28N 37°28' E 025°19'0 0.0
2017-Nov-19 09:58N 37°28' E 025°19'0 0.0
2017-Nov-19 09:25N 37°28' E 025°19'0 0.0
2017-Nov-19 08:58N 37°28' E 025°19'0 0.0
2017-Nov-19 08:28N 37°28' E 025°19'0 0.0
2017-Nov-19 07:58N 37°28' E 025°19'0 0.0
2017-Nov-19 07:28N 37°28' E 025°19'0 0.0
2017-Nov-19 06:58N 37°28' E 025°19'0 0.0
2017-Nov-19 06:28N 37°28' E 025°19'0 0.0
2017-Nov-19 05:52N 37°28' E 025°19'0 0.0
2017-Nov-19 05:25N 37°28' E 025°19'0 0.0
2017-Nov-19 04:58N 37°28' E 025°19'0 0.5
2017-Nov-19 04:30N 37°28' E 025°19'4 8.0
2017-Nov-19 04:00N 37°28' E 025°14'611.1
2017-Nov-19 03:30N 37°30' E 025°08'510.6
2017-Nov-19 03:00N 37°32' E 025°02'10 9.8
2017-Nov-19 02:01N 37°32' E 024°49'011.1
2017-Nov-19 02:00N 37°32' E 024°49'510.5
2017-Nov-19 01:30N 37°29' E 024°44'816.0
2017-Nov-19 01:00N 37°24' E 024°36'44 6.2 290 / 71010.910.8 16.812.721.0
2017-Nov-18 18:00N 37°37' E 023°43'510.2
2017-Nov-18 17:30N 37°42' E 023°42'510.4
2017-Nov-18 17:00N 37°46' E 023°38'510.1
2017-Nov-18 16:30N 37°51' E 023°36'510.0
2017-Nov-18 16:01N 37°56' E 023°37'1 2.7
2017-Nov-18 15:30N 37°56' E 023°38'0 0.0
2017-Nov-18 15:00N 37°56' E 023°38'0 0.0
2017-Nov-18 14:30N 37°56' E 023°38'0 0.0
2017-Nov-18 14:00N 37°56' E 023°38'0 0.0
2017-Nov-18 13:30N 37°56' E 023°38'0 0.0
2017-Nov-18 12:57N 37°56' E 023°38'0 0.0
2017-Nov-18 12:27N 37°56' E 023°38'0 0.0
2017-Nov-18 12:00N 37°56' E 023°38'0 0.0
2017-Nov-18 11:30N 37°56' E 023°38'0 0.0
2017-Nov-18 11:00N 37°56' E 023°38'0 0.0
2017-Nov-18 10:30N 37°56' E 023°38'0 0.0
2017-Nov-18 10:00N 37°56' E 023°38'0 0.0
2017-Nov-18 09:24N 37°56' E 023°38'0 0.0
2017-Nov-18 09:00N 37°56' E 023°38'0 0.0
2017-Nov-18 08:27N 37°56' E 023°38'0 0.0
2017-Nov-18 08:00N 37°56' E 023°38'0 0.0
2017-Nov-18 07:30N 37°56' E 023°38'0 0.0
2017-Nov-18 07:00N 37°56' E 023°38'0 0.0
2017-Nov-18 06:30N 37°56' E 023°38'0 0.0
2017-Nov-18 06:00N 37°56' E 023°38'0 0.0
2017-Nov-18 05:30N 37°56' E 023°38'0 0.0
2017-Nov-18 05:00N 37°56' E 023°38'1 2.4
2017-Nov-18 04:30N 37°56' E 023°37'3 6.0
2017-Nov-18 04:00N 37°53' E 023°38'612.1
2017-Nov-18 03:31N 37°48' E 023°41'12513.1
2017-Nov-17 18:00N 38°48' E 026°00'166 4.1 050 / 211014.8 5.4 16.012.420.0
2017-Nov-16 01:00N 36°12' E 027°12'145 6.1 120 / 141018.710.8 19.016.520.0
2017-Nov-15 01:00N 36°18' E 024°12'5819.3 110 / 161015.310.8 18.018.022.0
2017-Nov-14 22:00N 36°18' E 023°00'19811.6 170 / 251013.410.8 20.015.822.0
2017-Nov-14 05:00N 38°24' E 019°48'5212.9 100 / 251006.910.8 17.013.520.0
2017-Nov-14 01:00N 39°12' E 019°24'3912.9 190 / 171004.3 5.4 17.013.518.0
2017-Nov-13 22:00N 39°48' E 019°06'7312.1 150 / 321003.8 5.4 18.016.320.0
2017-Nov-13 16:00N 41°00' E 018°54'19 9.3 150 / 34999.5 5.4 17.012.519.0
2017-Nov-13 14:00N 41°18' E 018°48'77 6.4 150 / 31999.310.8 18.213.318.0
2017-Nov-13 02:00N 42°24' E 017°54'93 6.2 170 / 331000.810.8 18.0
2017-Nov-12 11:00N 43°30' E 016°24'53 5.8 110 / 161011.110.8 16.012.417.0
2017-Nov-12 02:00N 43°36' E 015°12'7017.6 140 / 131011.810.8 16.011.416.0
2017-Nov-11 22:00N 44°12' E 013°48'929.6 180 / 141011.410.8 16.010.318.0
2017-Nov-11 21:41N 44°21' E 013°48'317.6
2017-Nov-11 21:30N 44°24' E 013°46'917.8
2017-Nov-11 21:00N 44°31' E 013°38'917.7
2017-Nov-11 20:30N 44°38' E 013°32'917.6
2017-Nov-11 20:00N 44°46' E 013°26'917.8
2017-Nov-11 19:30N 44°53' E 013°19'917.7
2017-Nov-11 19:00N 45°00' E 013°11'917.7
2017-Nov-11 18:30N 45°07' E 013°04'917.6
2017-Nov-11 18:00N 45°16' E 013°01'815.4
2017-Nov-11 17:30N 45°21' E 012°52'917.6
2017-Nov-11 17:00N 45°22' E 012°40'815.4
2017-Nov-11 16:30N 45°24' E 012°29'5 9.7
2017-Nov-11 16:00N 45°26' E 012°23'3 5.5
2017-Nov-11 15:30N 45°26' E 012°19'0 0.9
2017-Nov-11 14:59N 45°26' E 012°19'0 0.0
2017-Nov-11 14:29N 45°26' E 012°19'0 0.0
2017-Nov-11 13:59N 45°26' E 012°19'0 0.0
2017-Nov-11 13:29N 45°26' E 012°19'0 0.0
2017-Nov-11 12:59N 45°26' E 012°19'0 0.0
2017-Nov-11 12:29N 45°26' E 012°19'0 0.0
2017-Nov-11 11:59N 45°26' E 012°19'0 0.0
2017-Nov-11 11:29N 45°26' E 012°19'0 0.0
2017-Nov-11 10:58N 45°26' E 012°19'0 0.0
2017-Nov-11 10:28N 45°26' E 012°19'0 0.0
2017-Nov-11 09:58N 45°26' E 012°19'0 0.0
2017-Nov-11 09:28N 45°26' E 012°19'0 0.0
2017-Nov-11 08:58N 45°26' E 012°19'0 0.0
2017-Nov-11 08:28N 45°26' E 012°19'0 0.0
2017-Nov-11 07:58N 45°26' E 012°19'0 0.0
2017-Nov-11 07:28N 45°26' E 012°19'0 0.0
2017-Nov-11 06:55N 45°26' E 012°19'0 0.0
2017-Nov-11 06:28N 45°26' E 012°19'0 0.0
2017-Nov-11 05:58N 45°26' E 012°19'0 0.0
2017-Nov-11 05:28N 45°26' E 012°19'0 0.0
2017-Nov-11 04:58N 45°26' E 012°19'0 0.3
2017-Nov-11 04:30N 45°26' E 012°19'2 3.5
2017-Nov-11 04:00N 45°26' E 012°21'3 6.7
2017-Nov-11 03:30N 45°25' E 012°26'510.2
2017-Nov-11 03:00N 45°22' E 012°32'611.9
2017-Nov-11 02:31N 45°16' E 012°33'714.6
2017-Nov-11 02:01N 45°12' E 012°41'815.0
2017-Nov-11 01:30N 45°08' E 012°50'815.3
2017-Nov-11 01:01N 45°00' E 012°53'816.6
2017-Nov-11 00:31N 44°56' E 013°03'917.1
2017-Nov-11 00:00N 44°56' E 013°15'816.5
2017-Nov-10 23:30N 44°53' E 013°26'917.5
2017-Nov-10 23:00N 44°46' E 013°34'917.4
2017-Nov-10 22:31N 44°40' E 013°42'917.2
2017-Nov-10 22:01N 44°39' E 013°54'815.4
2017-Nov-10 21:31N 44°43' E 014°03'1417.8
2017-Nov-10 20:43N 44°56' E 014°11'1615.8
2017-Nov-10 19:40N 45°12' E 014°18'714.6
2017-Nov-10 19:10N 45°18' E 014°23'  

Dump ship's entire track history